Aérodrome :
LOGIN :

S'inscrire | Disclaimer

   EN    FR    IT 

 










Légende :    VFR   VFR Marginal   IFR   IFR Intensif   IFR Très Intensif
Visi : 
Plafond : 
>= 8 km
>= 3000ft
5 à 8 km
1000 à 3000 ft
1500m à 5 km
500 à 1000 ft
800 à 1500m
200 à 500 ft
< 800m
< 200 ft
Symboles :   Orages  Brouillard  Fortes neiges  Fortes précipitations  Vent > 20 kt
SIGMETs :   Divers  Orages  Givrage  Turbulence  Onde Orograph.  Cendres Volcan.






- Altitude de l'aérodrome : 70 ft
- Code IATA : LEI


LEAM - Almeria

DERNIER METAR :
  • 210330Z AUTO 32006KT CAVOK 11/07 Q1026

METARs EXPIRÉS :
  • 210300Z AUTO 31006KT CAVOK 12/08 Q1026
  • 210230Z AUTO 33005KT 300V010 CAVOK 11/08 Q1026
  • 210200Z AUTO 33006KT CAVOK 11/08 Q1026
  • 210130Z AUTO 33007KT CAVOK 11/08 Q1026
  • 210100Z AUTO 33007KT CAVOK 11/08 Q1026

TAF TAF LEAM
Valide du 21 à 03h jusqu'au 22 à 03h UTC


210200Z 2103/2203 35007KT CAVOK TX20/2114Z TN09/2107Z
BECMG 2109/2111 07020KT
PROB30
TEMPO 2111/2117 08020G30KT
BECMG 2119/2121 02006KT



MET'MAP, la Météo Aéronautique d'un coup d'oeil ! - Copyright ORBIFLY Décembre 2007 - Disclaimer

ORBIFLY MET'MAP TEAM :

Programmation & Développement : Alexandra Zaïnal
Sur une idée originale de : Baudouin d'Aumeries
Assistance à la programmation : Marc-Olivier Méhu
Soutien technique & logistique : Manuel Goepfert

Contact : metmap@orbifly.com




SOURCES & CREDITS :

   NOAA